This is the latest recevied weather packets stored in our database for station/object K7SFN. If no packets are shown the sender has not sent any weather packets the latest 10 day(s).
| Time | Temp. | Humidity | Pressure | Rain* | Wind** | Luminosity | Snow |
|---|---|---|---|---|---|---|---|
| 1778108705 | 25° C | 18% | 1019.7 hPa | 0 mm | - | - | - |
| 1778108404 | 25° C | 18% | 1019.8 hPa | 0 mm | - | - | - |
| 1778107204 | 25° C | 18% | 1020 hPa | 0 mm | - | - | - |
| 1778102104 | 25° C | 18% | 1021 hPa | 0 mm | - | - | - |
| 1778101804 | 25° C | 20% | 1021.1 hPa | 0 mm | - | - | - |
| 1778100605 | 25° C | 20% | 1021.1 hPa | 0 mm | - | - | - |
| 1778096405 | 23.89° C | 23% | 1021.6 hPa | 0 mm | - | - | - |
| 1778096104 | 23.33° C | 24% | 1021.6 hPa | 0 mm | - | - | - |
| 1778095804 | 23.33° C | 23% | 1021.6 hPa | 0 mm | - | - | - |
| 1778092204 | 22.22° C | 35% | 1021.7 hPa | 0 mm | - | - | - |
| 1778091605 | 21.67° C | 35% | 1021.8 hPa | 0 mm | - | - | - |
| 1778085005 | 18.33° C | 46% | 1021.6 hPa | 0 mm | - | - | - |
| 1778084405 | 17.78° C | 50% | 1021.7 hPa | 0 mm | - | - | - |
| 1778084104 | 17.22° C | 51% | 1021.6 hPa | 0 mm | - | - | - |
| 1778080805 | 13.33° C | 71% | 1021.5 hPa | 0 mm | - | - | - |
| 1778078704 | 11.67° C | 79% | 1021.4 hPa | 0 mm | - | - | - |
| 1778078105 | 11.11° C | 82% | 1021.2 hPa | 0 mm | - | - | - |
| 1778074804 | 6.11° C | 94% | 1020.6 hPa | 0 mm | - | - | - |
| 1778073604 | 6.11° C | 94% | 1020.3 hPa | 0 mm | - | - | - |
| 1778066704 | 6.67° C | 91% | 1018.8 hPa | 0 mm | - | - | - |
| 1778064004 | 7.22° C | 89% | 1018.2 hPa | 0 mm | - | - | - |
| 1778061604 | 7.78° C | 91% | 1017.8 hPa | 0 mm | - | - | - |
| 1778058604 | 8.89° C | 88% | 1017.4 hPa | 0 mm | - | - | - |
| 1778058304 | 8.89° C | 88% | 1017.4 hPa | 0 mm | - | - | - |
| 1778057705 | 8.33° C | 88% | 1017.4 hPa | 0 mm | - | - | - |
* Rain latest hour (hover to see other rain measurements)
** Current wind speed in m/s (hover to see current wind gust speed)